MUCF/CFG METAR and TAF weather

Enter ICAO airport designator
Station Type Date Time Source
MUCF METAR 2024/04/15 08:59 UTC NOAA

MUCF 150859Z AUTO 07005KT 19/18 Q1016


Station Type Date Time Source
MUCF Decoded METAR 2024/04/15 08:59 UTC NOAA

Cienfuegos, Las Villas, Cuba (MUCF) 22-09N 080-24W 39M
Apr 15, 2024 - 04:59 AM EDT / 2024.04.15 0859 UTC
Wind: from the ENE (070 degrees) at 6 MPH (5 KT):0
Temperature: 66 F (19 C)
Dew Point: 64 F (18 C)
Relative Humidity: 93%
Pressure (altimeter): 30.00 in. Hg (1016 hPa)
ob: MUCF 150859Z AUTO 07005KT 19/18 Q1016
cycle: 9

Station Type Date Time Source
MUCF TAF 2024/04/14 18:03 UTC NOAA